createdAt,value
2023-04-16T00:00:04.823Z,7.20
2023-04-16T00:05:14.765Z,7.19
2023-04-16T00:10:16.451Z,7.15
2023-04-16T00:15:18.083Z,7.14
2023-04-16T00:20:20.490Z,7.10
2023-04-16T00:25:22.173Z,7.09
2023-04-16T00:30:23.803Z,7.05
2023-04-16T00:35:25.728Z,7.00
2023-04-16T00:40:29.032Z,6.95
2023-04-16T00:45:30.863Z,6.96
2023-04-16T00:50:33.389Z,6.91
2023-04-16T00:55:35.295Z,6.87
2023-04-16T01:00:37.313Z,6.86
2023-04-16T01:05:38.998Z,6.85
2023-04-16T01:10:40.829Z,6.81
2023-04-16T01:15:42.486Z,6.80
2023-04-16T01:20:44.560Z,6.76
2023-04-16T01:25:47.047Z,6.71
2023-04-16T01:30:48.774Z,6.69
2023-04-16T01:36:22.395Z,6.65
2023-04-16T01:41:24.741Z,6.63
2023-04-16T01:46:31.743Z,6.60
2023-04-16T01:51:33.625Z,6.56
2023-04-16T01:56:35.330Z,6.45
2023-04-16T02:01:37.486Z,6.33
2023-04-16T02:06:39.428Z,6.25
2023-04-16T02:11:41.198Z,6.09
2023-04-16T02:16:42.918Z,5.98
2023-04-16T02:21:56.257Z,5.93
2023-04-16T02:26:58.262Z,5.82
2023-04-16T02:32:00.263Z,5.79
2023-04-16T02:37:03.631Z,5.80
2023-04-16T02:42:05.276Z,5.79
2023-04-16T02:47:06.994Z,5.73
2023-04-16T02:52:08.664Z,5.69
2023-04-16T02:57:10.498Z,5.69
2023-04-16T03:02:12.217Z,5.65
2023-04-16T03:07:13.999Z,5.65
2023-04-16T03:12:15.626Z,5.59
2023-04-16T03:17:17.251Z,5.50
2023-04-16T03:22:18.891Z,5.43
2023-04-16T03:27:21.264Z,5.36
2023-04-16T03:32:23.674Z,5.24
2023-04-16T03:37:25.503Z,5.19
2023-04-16T03:42:27.495Z,5.01
2023-04-16T03:47:29.201Z,4.87
2023-04-16T03:52:36.199Z,4.77
2023-04-16T03:57:38.014Z,4.70
2023-04-16T04:02:45.023Z,4.65
2023-04-16T04:07:53.071Z,4.63
2023-04-16T04:12:54.833Z,4.64
2023-04-16T04:17:57.886Z,4.64
2023-04-16T04:22:59.667Z,4.66
2023-04-16T04:28:02.067Z,4.72
2023-04-16T04:33:04.207Z,4.75
2023-04-16T04:38:06.515Z,4.77
2023-04-16T04:43:08.773Z,4.79
2023-04-16T04:48:10.566Z,4.81
2023-04-16T04:53:14.675Z,4.70
2023-04-16T04:58:16.451Z,4.73
2023-04-16T05:03:22.000Z,4.70
2023-04-16T05:08:23.779Z,4.79
2023-04-16T05:13:25.463Z,4.89
2023-04-16T05:18:27.086Z,4.95
2023-04-16T05:23:28.703Z,5.04
2023-04-16T05:28:30.994Z,5.03
2023-04-16T05:33:32.650Z,5.05
2023-04-16T05:38:34.267Z,5.15
2023-04-16T05:43:35.924Z,5.26
2023-04-16T05:48:37.621Z,5.22
2023-04-16T05:53:39.299Z,5.39
2023-04-16T05:58:40.922Z,5.57
2023-04-16T06:03:42.701Z,5.60
2023-04-16T06:08:44.415Z,5.85
2023-04-16T06:13:46.337Z,6.00
2023-04-16T06:18:47.991Z,6.12
2023-04-16T06:23:49.846Z,6.61
2023-04-16T06:28:51.504Z,6.72
2023-04-16T06:33:53.173Z,6.92
2023-04-16T06:38:54.898Z,6.96
2023-04-16T06:43:56.524Z,7.09
2023-04-16T06:48:58.146Z,7.72
2023-04-16T06:53:59.806Z,8.06
2023-04-16T06:59:01.406Z,8.14
2023-04-16T07:04:03.726Z,8.02
2023-04-16T07:09:05.681Z,8.12
2023-04-16T07:14:07.378Z,8.01
2023-04-16T07:19:09.184Z,8.00
2023-04-16T07:24:11.813Z,8.18
2023-04-16T07:29:13.552Z,9.02
2023-04-16T07:34:18.132Z,9.25
2023-04-16T07:39:19.802Z,9.40
2023-04-16T07:44:21.575Z,9.54
2023-04-16T07:49:23.298Z,9.57
2023-04-16T07:54:25.127Z,9.67
2023-04-16T07:59:27.516Z,9.54
2023-04-16T08:04:29.623Z,9.98
2023-04-16T08:09:31.352Z,10.03
2023-04-16T08:14:33.129Z,10.24
2023-04-16T08:19:34.739Z,10.16
2023-04-16T08:24:36.357Z,10.31
2023-04-16T08:29:38.277Z,10.84
2023-04-16T08:34:39.994Z,10.87
2023-04-16T08:39:41.811Z,10.91
2023-04-16T08:44:48.893Z,10.82
2023-04-16T08:49:58.393Z,10.94
2023-04-16T08:55:25.007Z,11.58
2023-04-16T09:00:26.798Z,11.77
2023-04-16T09:05:29.536Z,12.03
2023-04-16T09:10:31.423Z,12.42
2023-04-16T09:15:35.197Z,12.80
2023-04-16T09:20:36.900Z,12.45
2023-04-16T09:25:38.786Z,12.41
2023-04-16T09:30:43.182Z,12.75
2023-04-16T09:35:49.842Z,12.91
2023-04-16T09:41:07.239Z,12.86
2023-04-16T09:46:11.700Z,12.47
2023-04-16T09:51:13.422Z,12.69
2023-04-16T09:56:15.116Z,12.69
2023-04-16T10:01:18.309Z,12.81
2023-04-16T10:06:22.247Z,12.86
2023-04-16T10:11:25.707Z,13.01
2023-04-16T10:16:36.760Z,13.32
2023-04-16T10:21:38.432Z,13.41
2023-04-16T10:26:41.323Z,13.52
2023-04-16T10:31:43.204Z,13.50
2023-04-16T10:36:48.817Z,13.31
2023-04-16T10:41:51.367Z,13.70
2023-04-16T10:46:54.824Z,13.53
2023-04-16T10:52:00.279Z,14.04
2023-04-16T10:57:20.571Z,14.16
2023-04-16T11:02:28.990Z,13.70
2023-04-16T11:07:34.920Z,13.73
2023-04-16T11:12:40.537Z,13.64
2023-04-16T11:17:47.505Z,13.97
2023-04-16T11:22:50.266Z,13.76
2023-04-16T11:27:53.887Z,14.04
2023-04-16T11:32:55.770Z,14.18
2023-04-16T11:37:57.759Z,14.33
2023-04-16T11:43:04.075Z,14.02
2023-04-16T11:48:06.033Z,14.28
2023-04-16T11:53:07.783Z,14.82
2023-04-16T11:58:19.185Z,14.72
2023-04-16T12:03:38.819Z,14.71
2023-04-16T12:08:40.626Z,14.74
2023-04-16T12:13:42.314Z,14.71
2023-04-16T12:19:03.056Z,14.99
2023-04-16T12:24:05.967Z,14.76
2023-04-16T12:29:25.011Z,14.90
2023-04-16T12:34:36.509Z,15.03
2023-04-16T12:39:48.339Z,15.56
2023-04-16T12:44:50.028Z,15.65
2023-04-16T12:49:51.650Z,15.89
2023-04-16T12:54:53.484Z,15.72
2023-04-16T12:59:56.891Z,15.01
2023-04-16T13:04:58.557Z,14.91
2023-04-16T13:10:00.974Z,15.24
2023-04-16T13:15:02.700Z,15.69
2023-04-16T13:20:04.709Z,15.70
2023-04-16T13:25:07.073Z,15.68
2023-04-16T13:30:25.368Z,15.13
2023-04-16T13:35:27.369Z,14.35
2023-04-16T13:40:29.047Z,14.16
2023-04-16T13:45:30.868Z,14.32
2023-04-16T13:50:32.546Z,14.20
2023-04-16T13:55:34.313Z,14.34
2023-04-16T14:00:36.035Z,14.33
2023-04-16T14:05:37.701Z,14.51
2023-04-16T14:10:39.398Z,14.73
2023-04-16T14:15:41.113Z,14.75
2023-04-16T14:20:43.838Z,14.77
2023-04-16T14:25:45.601Z,14.87
2023-04-16T14:30:47.193Z,14.98
2023-04-16T14:35:50.385Z,15.10
2023-04-16T14:40:52.099Z,14.62
2023-04-16T14:45:53.834Z,14.37
2023-04-16T14:50:55.676Z,14.40
2023-04-16T14:56:00.643Z,14.25
2023-04-16T15:01:03.195Z,14.14
2023-04-16T15:06:05.862Z,14.27
2023-04-16T15:11:07.677Z,14.24
2023-04-16T15:16:09.335Z,14.02
2023-04-16T15:21:12.593Z,13.90
2023-04-16T15:26:14.565Z,13.67
2023-04-16T15:31:16.259Z,13.22
2023-04-16T15:36:17.977Z,12.84
2023-04-16T15:41:19.712Z,12.56
2023-04-16T15:46:21.421Z,12.49
2023-04-16T15:51:23.122Z,12.43
2023-04-16T15:56:25.386Z,12.35
2023-04-16T16:01:28.535Z,12.13
2023-04-16T16:06:30.176Z,11.96
2023-04-16T16:11:34.647Z,11.91
2023-04-16T16:16:40.247Z,11.82
2023-04-16T16:21:42.089Z,11.66
2023-04-16T16:26:44.054Z,11.40
2023-04-16T16:31:45.949Z,11.35
2023-04-16T16:36:47.753Z,11.18
2023-04-16T16:41:52.219Z,11.06
2023-04-16T16:46:54.268Z,11.02
2023-04-16T16:51:56.036Z,10.93
2023-04-16T16:56:58.683Z,10.91
2023-04-16T17:02:00.426Z,10.84
2023-04-16T17:07:02.601Z,10.79
2023-04-16T17:12:05.529Z,10.73
2023-04-16T17:17:07.196Z,10.70
2023-04-16T17:22:08.953Z,10.69
2023-04-16T17:27:10.569Z,10.59
2023-04-16T17:32:12.342Z,10.44
2023-04-16T17:37:14.095Z,10.33
2023-04-16T17:42:15.861Z,10.17
2023-04-16T17:47:17.551Z,10.04
2023-04-16T17:52:21.259Z,9.95
2023-04-16T17:57:22.868Z,9.87
2023-04-16T18:02:32.341Z,9.80
2023-04-16T18:07:36.611Z,9.73
2023-04-16T18:12:38.333Z,9.72
2023-04-16T18:17:40.516Z,9.75
2023-04-16T18:22:42.555Z,9.73
2023-04-16T18:27:44.844Z,9.73
2023-04-16T18:33:16.621Z,9.74
2023-04-16T18:38:08.783Z,9.72
2023-04-16T18:43:11.828Z,9.65
2023-04-16T18:48:13.481Z,9.60
2023-04-16T18:53:19.894Z,9.54
2023-04-16T18:58:24.554Z,9.46
2023-04-16T19:03:27.472Z,9.40
2023-04-16T19:08:29.767Z,9.38
2023-04-16T19:13:32.336Z,9.38
2023-04-16T19:18:33.976Z,9.34
2023-04-16T19:23:35.699Z,9.31
2023-04-16T19:28:38.780Z,9.29
2023-04-16T19:33:41.184Z,9.30
2023-04-16T19:38:42.802Z,9.28
2023-04-16T19:43:53.181Z,9.27
2023-04-16T19:48:54.885Z,9.21
2023-04-16T19:53:58.729Z,9.18
2023-04-16T19:59:02.035Z,9.18
2023-04-16T20:04:03.844Z,9.15
2023-04-16T20:09:06.045Z,9.13
2023-04-16T20:14:07.686Z,9.11
2023-04-16T20:19:17.109Z,9.10
2023-04-16T20:24:18.874Z,9.07
2023-04-16T20:29:23.200Z,9.06
2023-04-16T20:34:24.876Z,9.03
2023-04-16T20:39:27.338Z,9.05
2023-04-16T20:44:33.431Z,9.02
2023-04-16T20:49:35.326Z,9.02
2023-04-16T20:54:37.128Z,9.00
2023-04-16T20:59:38.857Z,8.97
2023-04-16T21:04:40.815Z,8.95
2023-04-16T21:09:42.564Z,8.91
2023-04-16T21:14:44.278Z,8.92
2023-04-16T21:19:49.468Z,8.90
2023-04-16T21:25:07.207Z,8.90
2023-04-16T21:30:15.032Z,8.91
2023-04-16T21:35:16.775Z,8.90
2023-04-16T21:40:21.801Z,8.88
2023-04-16T21:45:23.574Z,8.90
2023-04-16T21:50:25.356Z,8.89
2023-04-16T21:55:27.028Z,8.87
2023-04-16T22:00:37.908Z,8.87
2023-04-16T22:05:44.976Z,8.83
2023-04-16T22:10:47.088Z,8.81
2023-04-16T22:15:48.671Z,8.77
2023-04-16T22:20:51.034Z,8.76
2023-04-16T22:25:54.319Z,8.72
2023-04-16T22:30:57.586Z,8.73
2023-04-16T22:36:03.275Z,8.75
2023-04-16T22:41:05.003Z,8.74
2023-04-16T22:46:14.785Z,8.76
2023-04-16T22:51:21.402Z,8.74
2023-04-16T22:56:28.668Z,8.72
2023-04-16T23:01:34.361Z,8.67
2023-04-16T23:06:36.245Z,8.64
2023-04-16T23:11:37.954Z,8.61
2023-04-16T23:16:39.930Z,8.57
2023-04-16T23:21:41.894Z,8.56
2023-04-16T23:26:43.526Z,8.56
2023-04-16T23:31:45.404Z,8.57
2023-04-16T23:36:47.128Z,8.56
2023-04-16T23:41:48.831Z,8.53
2023-04-16T23:46:50.621Z,8.52
2023-04-16T23:51:52.275Z,8.51
2023-04-16T23:56:53.917Z,8.51
